createdAt,value
2019-04-14T00:00:03.437Z,98.77
2019-04-14T00:01:02.513Z,99.24
2019-04-14T00:02:03.175Z,98.96
2019-04-14T00:03:02.486Z,98.86
2019-04-14T00:04:03.053Z,99.15
2019-04-14T00:05:02.460Z,99.62
2019-04-14T00:06:02.693Z,99.81
2019-04-14T00:07:03.601Z,99.62
2019-04-14T00:08:02.475Z,99.90
2019-04-14T00:09:03.224Z,99.99
2019-04-14T00:10:02.935Z,99.99
2019-04-14T00:11:02.379Z,99.99
2019-04-14T00:12:05.820Z,99.99
2019-04-14T00:13:02.549Z,99.99
2019-04-14T00:14:03.174Z,99.99
2019-04-14T00:15:02.550Z,99.99
2019-04-14T00:16:03.155Z,99.99
2019-04-14T00:17:02.305Z,99.99
2019-04-14T00:18:03.201Z,99.99
2019-04-14T00:19:02.350Z,99.99
2019-04-14T00:20:03.230Z,99.99
2019-04-14T00:21:02.299Z,99.99
2019-04-14T00:22:03.248Z,99.99
2019-04-14T00:23:02.257Z,99.99
2019-04-14T00:24:03.066Z,99.99
2019-04-14T00:25:02.467Z,99.99
2019-04-14T00:26:03.003Z,99.99
2019-04-14T00:27:02.171Z,99.99
2019-04-14T00:28:03.022Z,99.99
2019-04-14T00:29:02.699Z,99.99
2019-04-14T00:30:03.293Z,99.99
2019-04-14T00:31:02.353Z,99.99
2019-04-14T00:32:03.078Z,99.99
2019-04-14T00:33:02.085Z,99.99
2019-04-14T00:34:02.910Z,99.99
2019-04-14T00:35:02.070Z,99.99
2019-04-14T00:36:02.308Z,99.99
2019-04-14T00:37:03.346Z,99.99
2019-04-14T00:38:02.405Z,99.99
2019-04-14T00:39:03.122Z,99.99
2019-04-14T00:40:02.055Z,99.99
2019-04-14T00:41:02.900Z,99.99
2019-04-14T00:42:03.523Z,99.99
2019-04-14T00:43:02.777Z,99.99
2019-04-14T00:44:01.946Z,99.99
2019-04-14T00:45:02.865Z,99.99
2019-04-14T00:46:02.688Z,99.99
2019-04-14T00:47:02.853Z,99.99
2019-04-14T00:48:09.260Z,99.99
2019-04-14T00:49:02.825Z,99.99
2019-04-14T00:50:01.855Z,99.99
2019-04-14T00:51:02.758Z,99.99
2019-04-14T00:52:01.936Z,99.99
2019-04-14T00:53:01.815Z,99.99
2019-04-14T00:54:02.246Z,99.99
2019-04-14T00:55:01.798Z,99.99
2019-04-14T00:56:02.031Z,99.99
2019-04-14T00:57:03.092Z,99.99
2019-04-14T00:58:01.744Z,99.99
2019-04-14T00:59:02.805Z,99.99
2019-04-14T01:00:01.882Z,99.99
2019-04-14T01:01:02.733Z,99.99
2019-04-14T01:02:01.695Z,99.99
2019-04-14T01:03:02.544Z,99.99
2019-04-14T01:04:01.665Z,99.99
2019-04-14T01:05:02.546Z,99.99
2019-04-14T01:06:01.640Z,99.99
2019-04-14T01:07:02.211Z,99.99
2019-04-14T01:08:01.612Z,99.99
2019-04-14T01:09:02.139Z,99.99
2019-04-14T01:10:01.838Z,99.99
2019-04-14T01:11:01.572Z,99.99
2019-04-14T01:12:01.855Z,99.99
2019-04-14T01:13:02.692Z,99.99
2019-04-14T01:14:01.651Z,99.99
2019-04-14T01:15:02.962Z,99.99
2019-04-14T01:16:08.910Z,99.99
2019-04-14T01:17:02.645Z,99.99
2019-04-14T01:18:01.549Z,99.99
2019-04-14T01:19:02.556Z,99.99
2019-04-14T01:20:01.530Z,99.99
2019-04-14T01:21:02.505Z,99.99
2019-04-14T01:22:01.433Z,99.99
2019-04-14T01:23:02.046Z,99.99
2019-04-14T01:24:01.402Z,99.99
2019-04-14T01:25:02.314Z,99.99
2019-04-14T01:26:01.376Z,99.99
2019-04-14T01:27:01.697Z,99.99
2019-04-14T01:28:02.407Z,99.99
2019-04-14T01:29:01.485Z,99.99
2019-04-14T01:30:02.565Z,99.99
2019-04-14T01:31:01.304Z,99.99
2019-04-14T01:32:02.342Z,99.99
2019-04-14T01:33:01.285Z,99.99
2019-04-14T01:34:01.981Z,99.99
2019-04-14T01:35:01.269Z,99.99
2019-04-14T01:36:01.765Z,99.99
2019-04-14T01:37:01.224Z,99.99
2019-04-14T01:38:01.645Z,99.99
2019-04-14T01:39:02.453Z,99.99
2019-04-14T01:40:01.184Z,99.99
2019-04-14T01:41:02.133Z,99.99
2019-04-14T01:42:01.153Z,99.99
2019-04-14T01:43:01.705Z,99.99
2019-04-14T01:44:02.424Z,99.99
2019-04-14T01:45:01.427Z,99.99
2019-04-14T01:46:09.651Z,99.99
2019-04-14T01:47:03.030Z,99.99
2019-04-14T01:48:01.719Z,99.99
2019-04-14T01:49:01.057Z,99.99
2019-04-14T01:50:01.787Z,99.99
2019-04-14T01:51:01.037Z,99.99
2019-04-14T01:52:01.388Z,99.99
2019-04-14T01:53:01.179Z,99.99
2019-04-14T01:54:01.795Z,99.99
2019-04-14T01:55:00.993Z,99.99
2019-04-14T01:56:01.308Z,99.99
2019-04-14T01:57:00.948Z,99.99
2019-04-14T01:58:01.077Z,99.99
2019-04-14T01:59:02.134Z,99.99
2019-04-14T02:00:03.260Z,99.99
2019-04-14T02:01:01.911Z,99.99
2019-04-14T02:02:00.901Z,99.99
2019-04-14T02:03:01.940Z,99.99
2019-04-14T02:04:00.853Z,99.99
2019-04-14T02:05:01.808Z,99.99
2019-04-14T02:06:00.825Z,99.99
2019-04-14T02:07:01.630Z,99.99
2019-04-14T02:08:00.813Z,99.99
2019-04-14T02:09:01.190Z,99.99
2019-04-14T02:10:01.990Z,99.99
2019-04-14T02:11:00.974Z,99.99
2019-04-14T02:12:01.640Z,99.99
2019-04-14T02:13:00.737Z,99.99
2019-04-14T02:14:01.597Z,99.99
2019-04-14T02:15:00.702Z,99.99
2019-04-14T02:16:12.780Z,99.99
2019-04-14T02:17:03.142Z,99.99
2019-04-14T02:18:00.985Z,99.99
2019-04-14T02:19:00.656Z,99.99
2019-04-14T02:20:01.217Z,99.99
2019-04-14T02:21:00.638Z,99.99
2019-04-14T02:22:00.774Z,99.99
2019-04-14T02:23:01.671Z,99.99
2019-04-14T02:24:00.582Z,99.99
2019-04-14T02:25:01.460Z,99.99
2019-04-14T02:26:00.557Z,99.99
2019-04-14T02:27:01.282Z,99.99
2019-04-14T02:28:00.525Z,99.99
2019-04-14T02:29:01.419Z,99.99
2019-04-14T02:30:00.565Z,99.99
2019-04-14T02:31:13.921Z,99.99
2019-04-14T02:32:35.419Z,99.99
2019-04-14T02:33:32.172Z,99.99
2019-04-14T02:34:34.749Z,99.99
2019-04-14T02:35:35.161Z,99.99
2019-04-14T02:37:26.658Z,99.99
2019-04-14T02:38:36.012Z,99.99
2019-04-14T02:39:29.297Z,99.99
2019-04-14T02:40:39.329Z,99.99
2019-04-14T02:41:52.851Z,99.99
2019-04-14T02:42:42.003Z,99.99
2019-04-14T02:43:29.682Z,99.99
2019-04-14T02:44:30.262Z,99.99
2019-04-14T02:45:40.762Z,99.99
2019-04-14T02:46:35.715Z,99.99
2019-04-14T02:47:56.820Z,99.99
2019-04-14T02:48:36.138Z,99.99
2019-04-14T02:49:29.414Z,99.99
2019-04-14T02:50:24.541Z,99.99
2019-04-14T02:52:28.250Z,99.99
2019-04-14T02:53:23.995Z,99.99
2019-04-14T02:55:21.317Z,99.99
2019-04-14T02:57:26.909Z,99.99
2019-04-14T02:58:26.694Z,99.99
2019-04-14T02:59:28.924Z,99.99
2019-04-14T03:00:41.786Z,99.99
2019-04-14T03:02:30.225Z,99.99
2019-04-14T03:03:35.521Z,99.99
2019-04-14T03:04:25.984Z,99.99
2019-04-14T03:05:26.991Z,99.99
2019-04-14T03:06:25.257Z,99.99
2019-04-14T03:07:34.195Z,99.99
2019-04-14T03:08:25.638Z,99.99
2019-04-14T03:10:28.163Z,99.99
2019-04-14T03:11:24.548Z,99.99
2019-04-14T03:12:31.514Z,99.99
2019-04-14T03:13:31.814Z,99.99
2019-04-14T03:15:29.515Z,99.99
2019-04-14T03:16:29.733Z,99.99
2019-04-14T03:18:33.859Z,99.99
2019-04-14T03:19:27.540Z,99.99
2019-04-14T03:21:26.272Z,99.99
2019-04-14T03:22:32.910Z,99.99
2019-04-14T03:23:34.894Z,99.99
2019-04-14T03:24:30.786Z,99.99
2019-04-14T03:25:21.107Z,99.99
2019-04-14T03:26:24.950Z,99.99
2019-04-14T03:27:31.070Z,99.99
2019-04-14T03:28:38.758Z,99.99
2019-04-14T03:29:29.287Z,99.99
2019-04-14T03:33:48.449Z,99.99
2019-04-14T03:35:51.466Z,99.99
2019-04-14T03:36:59.724Z,99.99
2019-04-14T03:38:29.375Z,99.99
2019-04-14T03:39:31.927Z,99.99
2019-04-14T03:40:25.645Z,99.99
2019-04-14T03:41:42.836Z,99.99
2019-04-14T03:42:29.576Z,99.99
2019-04-14T03:43:28.320Z,99.99
2019-04-14T03:44:28.531Z,99.99
2019-04-14T03:45:39.403Z,99.99
2019-04-14T03:46:45.234Z,99.99
2019-04-14T03:48:48.597Z,99.99
2019-04-14T03:50:21.541Z,99.99
2019-04-14T03:51:26.369Z,99.99
2019-04-14T03:52:31.943Z,99.99
2019-04-14T03:53:32.135Z,99.99
2019-04-14T03:54:20.304Z,99.99
2019-04-14T03:55:17.431Z,99.99
2019-04-14T03:56:04.248Z,99.99
2019-04-14T03:56:59.855Z,99.99
2019-04-14T03:58:00.544Z,99.99
2019-04-14T03:58:59.835Z,99.99
2019-04-14T03:59:59.267Z,99.99
2019-04-14T04:00:59.772Z,99.99
2019-04-14T04:01:59.236Z,99.99
2019-04-14T04:02:59.790Z,99.99
2019-04-14T04:03:59.211Z,99.99
2019-04-14T04:04:59.873Z,99.99
2019-04-14T04:05:59.182Z,99.99
2019-04-14T04:06:59.640Z,99.99
2019-04-14T04:08:00.287Z,99.99
2019-04-14T04:08:59.651Z,99.99
2019-04-14T04:10:00.409Z,99.99
2019-04-14T04:10:59.779Z,99.99
2019-04-14T04:11:59.099Z,99.99
2019-04-14T04:12:59.724Z,99.99
2019-04-14T04:13:59.071Z,99.99
2019-04-14T04:14:59.660Z,99.99
2019-04-14T04:15:59.045Z,99.99
2019-04-14T04:16:59.482Z,99.99
2019-04-14T04:18:00.200Z,99.99
2019-04-14T04:19:05.528Z,99.99
2019-04-14T04:19:59.911Z,99.99
2019-04-14T04:20:58.976Z,99.99
2019-04-14T04:21:59.568Z,99.99
2019-04-14T04:22:58.949Z,99.99
2019-04-14T04:23:59.671Z,99.99
2019-04-14T04:24:58.923Z,99.99
2019-04-14T04:25:59.480Z,99.99
2019-04-14T04:26:58.896Z,99.99
2019-04-14T04:27:59.095Z,99.99
2019-04-14T04:28:58.874Z,99.99
2019-04-14T04:29:59.211Z,99.99
2019-04-14T04:30:58.838Z,99.99
2019-04-14T04:31:58.990Z,99.99
2019-04-14T04:32:59.996Z,99.99
2019-04-14T04:33:58.798Z,99.99
2019-04-14T04:34:59.847Z,99.99
2019-04-14T04:35:58.769Z,99.99
2019-04-14T04:36:59.585Z,99.99
2019-04-14T04:37:58.741Z,99.99
2019-04-14T04:38:59.622Z,99.99
2019-04-14T04:39:58.716Z,99.99
2019-04-14T04:40:59.409Z,99.99
2019-04-14T04:41:58.698Z,99.99
2019-04-14T04:42:59.087Z,99.99
2019-04-14T04:43:58.657Z,99.99
2019-04-14T04:44:59.554Z,99.99
2019-04-14T04:45:58.641Z,99.99
2019-04-14T04:46:59.132Z,99.99
2019-04-14T04:47:58.600Z,99.99
2019-04-14T04:49:08.287Z,99.99
2019-04-14T04:49:58.572Z,99.99
2019-04-14T04:50:58.653Z,99.99
2019-04-14T04:51:59.621Z,99.99
2019-04-14T04:52:58.529Z,99.99
2019-04-14T04:53:59.464Z,99.99
2019-04-14T04:54:58.500Z,99.99
2019-04-14T04:55:59.311Z,99.99
2019-04-14T04:56:58.472Z,99.99
2019-04-14T04:57:59.104Z,99.99
2019-04-14T04:58:58.930Z,99.99
2019-04-14T04:59:58.428Z,99.99
2019-04-14T05:00:59.590Z,99.99
2019-04-14T05:01:58.399Z,99.99
2019-04-14T05:02:59.323Z,99.99
2019-04-14T05:03:58.371Z,99.99
2019-04-14T05:04:59.129Z,99.99
2019-04-14T05:05:58.343Z,99.99
2019-04-14T05:06:59.233Z,99.99
2019-04-14T05:07:58.313Z,99.99
2019-04-14T05:08:59.137Z,99.99
2019-04-14T05:09:58.283Z,99.99
2019-04-14T05:10:58.921Z,99.99
2019-04-14T05:11:58.256Z,99.99
2019-04-14T05:12:58.604Z,99.99
2019-04-14T05:13:58.226Z,99.99
2019-04-14T05:14:58.855Z,99.99
2019-04-14T05:15:58.199Z,99.99
2019-04-14T05:16:59.294Z,99.99
2019-04-14T05:17:58.170Z,99.99
2019-04-14T05:19:11.421Z,99.99
2019-04-14T05:19:58.453Z,99.99
2019-04-14T05:20:58.131Z,99.99
2019-04-14T05:21:58.151Z,99.99
2019-04-14T05:22:59.302Z,99.99
2019-04-14T05:23:58.171Z,99.99
2019-04-14T05:24:59.208Z,99.99
2019-04-14T05:25:58.193Z,99.99
2019-04-14T05:26:59.167Z,99.99
2019-04-14T05:27:58.077Z,99.99
2019-04-14T05:28:59.045Z,99.99
2019-04-14T05:29:58.082Z,99.99
2019-04-14T05:30:58.948Z,99.99
2019-04-14T05:31:57.975Z,99.99
2019-04-14T05:32:58.736Z,99.99
2019-04-14T05:33:57.946Z,99.99
2019-04-14T05:34:58.699Z,99.99
2019-04-14T05:35:57.920Z,99.99
2019-04-14T05:36:58.476Z,99.99
2019-04-14T05:37:57.892Z,99.99
2019-04-14T05:38:58.121Z,99.99
2019-04-14T05:39:57.868Z,99.99
2019-04-14T05:40:58.361Z,99.99
2019-04-14T05:42:07.535Z,99.99
2019-04-14T05:42:58.030Z,99.99
2019-04-14T05:44:01.204Z,99.99
2019-04-14T05:44:57.917Z,99.99
2019-04-14T05:45:59.040Z,99.99
2019-04-14T05:46:57.917Z,99.99
2019-04-14T05:47:58.821Z,99.99
2019-04-14T05:48:57.900Z,99.99
2019-04-14T05:49:59.160Z,99.99
2019-04-14T05:50:57.850Z,99.99
2019-04-14T05:51:57.699Z,99.99
2019-04-14T05:52:57.967Z,99.99
2019-04-14T05:53:57.671Z,99.99
2019-04-14T05:54:57.945Z,99.99
2019-04-14T05:55:57.645Z,99.99
2019-04-14T05:56:57.960Z,99.99
2019-04-14T05:57:57.617Z,99.99
2019-04-14T05:58:57.985Z,99.99
2019-04-14T05:59:57.593Z,99.99
2019-04-14T06:00:57.990Z,99.99
2019-04-14T06:01:57.563Z,99.99
2019-04-14T06:02:57.549Z,99.99
2019-04-14T06:03:58.170Z,99.99
2019-04-14T06:04:57.523Z,99.99
2019-04-14T06:05:57.509Z,99.99
2019-04-14T06:06:57.495Z,99.99
2019-04-14T06:07:57.482Z,99.99
2019-04-14T06:08:57.468Z,99.99
2019-04-14T06:09:57.455Z,99.99
2019-04-14T06:10:57.442Z,99.99
2019-04-14T06:11:57.428Z,99.99
2019-04-14T06:12:57.414Z,99.99
2019-04-14T06:13:57.400Z,99.99
2019-04-14T06:14:57.390Z,99.99
2019-04-14T06:15:57.374Z,99.99
2019-04-14T06:16:57.361Z,99.99
2019-04-14T06:17:57.347Z,99.99
2019-04-14T06:18:57.335Z,99.99
2019-04-14T06:19:57.330Z,99.99
2019-04-14T06:20:57.307Z,99.99
2019-04-14T06:21:57.293Z,99.99
2019-04-14T06:22:57.280Z,99.99
2019-04-14T06:23:57.266Z,99.99
2019-04-14T06:24:57.254Z,99.99
2019-04-14T06:25:57.246Z,99.99
2019-04-14T06:26:57.230Z,99.99
2019-04-14T06:27:57.213Z,99.99
2019-04-14T06:28:57.200Z,99.99
2019-04-14T06:29:57.187Z,99.99
2019-04-14T06:30:57.177Z,99.99
2019-04-14T06:31:57.161Z,99.99
2019-04-14T06:32:57.147Z,99.99
2019-04-14T06:33:57.139Z,99.99
2019-04-14T06:34:57.121Z,99.99
2019-04-14T06:35:57.107Z,99.99
2019-04-14T06:36:57.096Z,99.99
2019-04-14T06:37:57.081Z,99.99
2019-04-14T06:38:57.071Z,99.99
2019-04-14T06:39:57.055Z,99.99
2019-04-14T06:40:57.044Z,99.99
2019-04-14T06:41:57.028Z,99.99
2019-04-14T06:42:57.021Z,99.99
2019-04-14T06:43:57.003Z,99.99
2019-04-14T06:44:56.988Z,99.99
2019-04-14T06:45:56.974Z,99.99
2019-04-14T06:46:56.961Z,99.99
2019-04-14T06:47:56.948Z,99.99
2019-04-14T06:48:56.938Z,99.99
2019-04-14T06:49:56.921Z,99.99
2019-04-14T06:50:56.912Z,99.99
2019-04-14T06:51:56.896Z,99.99
2019-04-14T06:52:56.881Z,99.99
2019-04-14T06:53:56.867Z,99.99
2019-04-14T06:54:56.855Z,99.99
2019-04-14T06:55:56.841Z,99.99
2019-04-14T06:56:56.827Z,99.99
2019-04-14T06:57:56.815Z,99.99
2019-04-14T06:58:56.801Z,99.99
2019-04-14T06:59:56.789Z,99.99
2019-04-14T07:00:56.782Z,99.99
2019-04-14T07:01:59.128Z,99.99
2019-04-14T07:02:56.747Z,99.99
2019-04-14T07:03:56.733Z,99.99
2019-04-14T07:04:56.720Z,99.99
2019-04-14T07:05:56.706Z,99.99
2019-04-14T07:06:56.692Z,99.99
2019-04-14T07:07:57.567Z,99.99
2019-04-14T07:08:56.668Z,99.99
2019-04-14T07:09:56.653Z,99.99
2019-04-14T07:10:56.638Z,99.99
2019-04-14T07:11:56.640Z,99.99
2019-04-14T07:12:56.611Z,99.99
2019-04-14T07:13:56.596Z,99.99
2019-04-14T07:14:56.583Z,99.99
2019-04-14T07:15:56.600Z,99.99
2019-04-14T07:16:56.558Z,99.99
2019-04-14T07:17:56.544Z,99.99
2019-04-14T07:18:56.582Z,99.99
2019-04-14T07:20:02.348Z,99.99
2019-04-14T07:20:56.507Z,99.99
2019-04-14T07:21:56.489Z,99.99
2019-04-14T07:22:56.475Z,99.99
2019-04-14T07:23:56.463Z,99.99
2019-04-14T07:24:56.449Z,99.99
2019-04-14T07:25:56.436Z,99.99
2019-04-14T07:26:56.428Z,99.99
2019-04-14T07:27:56.409Z,99.99
2019-04-14T07:28:57.121Z,99.99
2019-04-14T07:29:56.383Z,99.99
2019-04-14T07:30:56.371Z,99.99
2019-04-14T07:31:56.358Z,99.99
2019-04-14T07:32:56.346Z,99.99
2019-04-14T07:33:56.332Z,99.99
2019-04-14T07:34:56.325Z,99.99
2019-04-14T07:35:56.306Z,99.99
2019-04-14T07:36:56.296Z,99.99
2019-04-14T07:37:56.285Z,99.99
2019-04-14T07:38:56.268Z,99.99
2019-04-14T07:39:56.256Z,99.99
2019-04-14T07:40:56.242Z,99.99
2019-04-14T07:41:56.229Z,99.99
2019-04-14T07:42:56.218Z,99.99
2019-04-14T07:43:56.210Z,99.99
2019-04-14T07:44:56.195Z,99.99
2019-04-14T07:45:56.181Z,99.99
2019-04-14T07:46:56.169Z,99.99
2019-04-14T07:47:56.158Z,99.99
2019-04-14T07:48:56.146Z,99.99
2019-04-14T07:49:56.134Z,99.99
2019-04-14T07:50:56.122Z,99.99
2019-04-14T07:51:56.112Z,99.99
2019-04-14T07:52:56.100Z,99.99
2019-04-14T07:53:56.091Z,99.99
2019-04-14T07:54:56.076Z,99.99
2019-04-14T07:55:56.065Z,99.99
2019-04-14T07:56:56.054Z,99.99
2019-04-14T07:57:56.043Z,99.99
2019-04-14T07:58:56.029Z,99.99
2019-04-14T07:59:56.019Z,99.99
2019-04-14T08:00:56.006Z,99.99
2019-04-14T08:01:55.995Z,99.99
2019-04-14T08:02:55.986Z,99.99
2019-04-14T08:03:55.973Z,99.99
2019-04-14T08:04:55.959Z,99.99
2019-04-14T08:05:55.945Z,99.99
2019-04-14T08:06:55.942Z,99.99
2019-04-14T08:07:55.922Z,99.99
2019-04-14T08:08:55.911Z,99.99
2019-04-14T08:09:55.945Z,99.99
2019-04-14T08:10:55.884Z,99.99
2019-04-14T08:11:55.872Z,99.99
2019-04-14T08:12:55.866Z,99.99
2019-04-14T08:13:55.847Z,99.99
2019-04-14T08:14:55.836Z,99.99
2019-04-14T08:15:55.823Z,99.99
2019-04-14T08:16:55.810Z,99.99
2019-04-14T08:17:55.797Z,99.99
2019-04-14T08:18:55.843Z,99.99
2019-04-14T08:19:55.774Z,99.99
2019-04-14T08:20:55.762Z,99.99
2019-04-14T08:21:55.750Z,99.99
2019-04-14T08:22:57.757Z,99.99
2019-04-14T08:23:55.725Z,99.99
2019-04-14T08:24:55.715Z,99.99
2019-04-14T08:25:55.700Z,99.99
2019-04-14T08:26:55.689Z,99.99
2019-04-14T08:27:55.677Z,99.99
2019-04-14T08:28:55.671Z,99.99
2019-04-14T08:29:55.653Z,99.99
2019-04-14T08:30:55.643Z,99.99
2019-04-14T08:31:55.630Z,99.99
2019-04-14T08:32:55.620Z,99.99
2019-04-14T08:33:55.605Z,99.99
2019-04-14T08:34:55.595Z,99.99
2019-04-14T08:35:55.582Z,99.99
2019-04-14T08:36:55.571Z,99.99
2019-04-14T08:37:55.558Z,99.99
2019-04-14T08:38:55.550Z,99.99
2019-04-14T08:39:55.536Z,99.99
2019-04-14T08:40:55.525Z,99.99
2019-04-14T08:41:55.513Z,99.99
2019-04-14T08:42:55.501Z,99.99
2019-04-14T08:43:55.489Z,99.99
2019-04-14T08:44:55.481Z,99.99
2019-04-14T08:45:55.467Z,99.99
2019-04-14T08:46:55.455Z,99.99
2019-04-14T08:47:55.445Z,99.99
2019-04-14T08:48:55.433Z,99.99
2019-04-14T08:49:55.422Z,99.99
2019-04-14T08:50:55.412Z,99.99
2019-04-14T08:51:55.403Z,99.99
2019-04-14T08:52:55.392Z,99.21
2019-04-14T08:53:55.382Z,97.36
2019-04-14T08:54:55.373Z,96.41
2019-04-14T08:55:55.364Z,94.23
2019-04-14T08:56:55.359Z,94.32
2019-04-14T08:57:55.346Z,95.94
2019-04-14T08:58:55.339Z,94.98
2019-04-14T08:59:55.331Z,94.27
2019-04-14T09:00:55.324Z,92.08
2019-04-14T09:01:55.315Z,88.67
2019-04-14T09:02:55.308Z,89.42
2019-04-14T09:03:55.301Z,87.71
2019-04-14T09:04:55.296Z,87.67
2019-04-14T09:05:55.286Z,88.90
2019-04-14T09:06:55.279Z,88.43
2019-04-14T09:07:55.272Z,88.15
2019-04-14T09:08:55.268Z,88.28
2019-04-14T09:09:55.263Z,86.95
2019-04-14T09:10:55.253Z,89.23
2019-04-14T09:11:55.309Z,90.42
2019-04-14T09:12:55.243Z,84.43
2019-04-14T09:13:55.237Z,83.04
2019-04-14T09:14:57.341Z,80.38
2019-04-14T09:15:55.229Z,79.05
2019-04-14T09:16:55.225Z,80.47
2019-04-14T09:17:55.220Z,80.29
2019-04-14T09:19:06.909Z,78.90
2019-04-14T09:19:55.214Z,78.80
2019-04-14T09:20:55.234Z,77.09
2019-04-14T09:21:55.205Z,76.71
2019-04-14T09:22:55.202Z,76.14
2019-04-14T09:23:56.912Z,77.47
2019-04-14T09:24:55.211Z,77.28
2019-04-14T09:25:55.190Z,77.13
2019-04-14T09:26:55.191Z,75.60
2019-04-14T09:27:55.184Z,71.76
2019-04-14T09:28:55.180Z,70.62
2019-04-14T09:29:55.175Z,73.63
2019-04-14T09:30:55.171Z,76.29
2019-04-14T09:31:55.167Z,76.14
2019-04-14T09:32:55.163Z,76.61
2019-04-14T09:33:55.159Z,74.27
2019-04-14T09:34:55.161Z,72.27
2019-04-14T09:35:55.152Z,70.84
2019-04-14T09:36:55.164Z,70.37
2019-04-14T09:37:55.146Z,71.55
2019-04-14T09:38:55.145Z,70.21
2019-04-14T09:39:55.142Z,70.78
2019-04-14T09:40:55.140Z,68.21
2019-04-14T09:41:55.137Z,71.93
2019-04-14T09:42:57.659Z,71.39
2019-04-14T09:43:55.135Z,67.35
2019-04-14T09:44:55.136Z,66.11
2019-04-14T09:45:55.131Z,66.50
2019-04-14T09:46:55.132Z,67.64
2019-04-14T09:47:55.129Z,67.74
2019-04-14T09:48:55.127Z,68.02
2019-04-14T09:49:55.125Z,68.69
2019-04-14T09:51:04.555Z,67.16
2019-04-14T09:51:55.122Z,66.50
2019-04-14T09:52:55.119Z,66.78
2019-04-14T09:53:55.119Z,67.35
2019-04-14T09:54:55.118Z,65.86
2019-04-14T09:55:55.112Z,65.86
2019-04-14T09:56:55.109Z,64.21
2019-04-14T09:57:55.105Z,63.26
2019-04-14T09:58:55.103Z,63.07
2019-04-14T09:59:55.104Z,64.94
2019-04-14T10:00:55.097Z,66.56
2019-04-14T10:01:55.092Z,68.37
2019-04-14T10:02:55.089Z,66.37
2019-04-14T10:03:55.084Z,66.94
2019-04-14T10:04:55.080Z,66.05
2019-04-14T10:05:55.075Z,65.86
2019-04-14T10:06:55.073Z,67.19
2019-04-14T10:07:55.066Z,69.38
2019-04-14T10:08:55.063Z,69.67
2019-04-14T10:09:55.054Z,69.67
2019-04-14T10:10:55.049Z,68.81
2019-04-14T10:11:56.497Z,68.43
2019-04-14T10:12:55.038Z,68.15
2019-04-14T10:13:55.033Z,68.24
2019-04-14T10:14:55.027Z,68.18
2019-04-14T10:15:55.022Z,67.22
2019-04-14T10:16:55.017Z,68.37
2019-04-14T10:17:55.014Z,67.74
2019-04-14T10:18:55.007Z,64.56
2019-04-14T10:19:55.002Z,64.18
2019-04-14T10:20:54.998Z,64.56
2019-04-14T10:21:54.993Z,65.36
2019-04-14T10:22:54.990Z,66.15
2019-04-14T10:23:54.985Z,64.09
2019-04-14T10:24:54.982Z,63.29
2019-04-14T10:25:54.978Z,62.15
2019-04-14T10:26:54.975Z,62.15
2019-04-14T10:27:54.971Z,62.81
2019-04-14T10:28:54.968Z,64.12
2019-04-14T10:29:54.963Z,63.64
2019-04-14T10:30:54.960Z,63.04
2019-04-14T10:31:54.955Z,62.94
2019-04-14T10:32:54.953Z,65.13
2019-04-14T10:33:54.945Z,65.42
2019-04-14T10:34:54.941Z,66.08
2019-04-14T10:35:54.938Z,66.08
2019-04-14T10:36:54.930Z,67.22
2019-04-14T10:37:54.923Z,65.80
2019-04-14T10:38:54.922Z,64.94
2019-04-14T10:39:54.913Z,64.84
2019-04-14T10:40:54.958Z,65.73
2019-04-14T10:41:54.922Z,66.31
2019-04-14T10:42:54.897Z,65.55
2019-04-14T10:43:54.892Z,63.76
2019-04-14T10:44:54.888Z,62.34
2019-04-14T10:45:54.884Z,61.70
2019-04-14T10:46:54.890Z,61.54
2019-04-14T10:47:54.875Z,61.38
2019-04-14T10:48:54.878Z,60.42
2019-04-14T10:49:54.869Z,58.33
2019-04-14T10:50:54.867Z,58.20
2019-04-14T10:51:54.863Z,58.65
2019-04-14T10:52:54.861Z,58.84
2019-04-14T10:53:54.858Z,59.79
2019-04-14T10:54:54.855Z,60.08
2019-04-14T10:55:54.851Z,58.55
2019-04-14T10:56:54.850Z,59.63
2019-04-14T10:57:54.848Z,59.63
2019-04-14T10:58:54.842Z,58.55
2019-04-14T10:59:54.840Z,58.62
2019-04-14T11:00:54.843Z,59.57
2019-04-14T11:01:54.833Z,61.00
2019-04-14T11:02:54.831Z,60.84
2019-04-14T11:03:54.829Z,59.79
2019-04-14T11:04:54.825Z,57.98
2019-04-14T11:05:54.821Z,57.50
2019-04-14T11:06:54.819Z,58.87
2019-04-14T11:07:54.818Z,58.01
2019-04-14T11:08:54.814Z,57.75
2019-04-14T11:09:54.816Z,56.38
2019-04-14T11:10:54.811Z,56.32
2019-04-14T11:11:54.815Z,56.13
2019-04-14T11:12:54.812Z,56.16
2019-04-14T11:13:54.807Z,54.56
2019-04-14T11:14:54.807Z,55.04
2019-04-14T11:15:54.807Z,54.47
2019-04-14T11:16:54.813Z,54.27
2019-04-14T11:17:54.808Z,52.81
2019-04-14T11:18:54.808Z,53.65
2019-04-14T11:19:54.807Z,54.38
2019-04-14T11:20:54.806Z,54.83
2019-04-14T11:21:54.804Z,56.65
2019-04-14T11:23:03.101Z,58.39
2019-04-14T11:23:54.808Z,57.12
2019-04-14T11:24:54.801Z,57.98
2019-04-14T11:25:54.800Z,57.31
2019-04-14T11:26:54.795Z,57.09
2019-04-14T11:27:54.793Z,56.71
2019-04-14T11:28:54.793Z,57.64
2019-04-14T11:29:54.787Z,59.26
2019-04-14T11:30:54.785Z,59.38
2019-04-14T11:31:54.781Z,60.43
2019-04-14T11:32:54.776Z,60.84
2019-04-14T11:33:54.774Z,60.58
2019-04-14T11:34:54.770Z,58.23
2019-04-14T11:35:54.847Z,55.46
2019-04-14T11:36:54.763Z,55.40
2019-04-14T11:37:54.760Z,55.23
2019-04-14T11:38:54.758Z,54.37
2019-04-14T11:39:54.757Z,52.05
2019-04-14T11:40:54.756Z,51.54
2019-04-14T11:41:54.754Z,52.22
2019-04-14T11:42:54.756Z,53.10
2019-04-14T11:43:54.765Z,53.70
2019-04-14T11:44:54.760Z,53.73
2019-04-14T11:45:54.753Z,51.65
2019-04-14T11:46:54.756Z,49.80
2019-04-14T11:47:54.772Z,49.49
2019-04-14T11:48:54.756Z,50.43
2019-04-14T11:49:54.754Z,51.48
2019-04-14T11:50:54.760Z,51.74
2019-04-14T11:51:55.838Z,52.09
2019-04-14T11:52:54.754Z,54.38
2019-04-14T11:53:54.751Z,55.62
2019-04-14T11:54:54.752Z,54.86
2019-04-14T11:55:54.744Z,54.89
2019-04-14T11:56:54.745Z,54.22
2019-04-14T11:57:54.743Z,53.17
2019-04-14T11:58:54.743Z,53.14
2019-04-14T11:59:54.736Z,53.33
2019-04-14T12:00:54.744Z,53.45
2019-04-14T12:01:54.730Z,54.34
2019-04-14T12:02:54.744Z,51.50
2019-04-14T12:03:54.728Z,51.62
2019-04-14T12:04:54.726Z,50.41
2019-04-14T12:05:54.728Z,46.67
2019-04-14T12:06:54.726Z,47.44
2019-04-14T12:07:54.726Z,48.47
2019-04-14T12:08:54.727Z,48.73
2019-04-14T12:09:54.726Z,49.59
2019-04-14T12:10:54.783Z,49.44
2019-04-14T12:11:54.734Z,51.43
2019-04-14T12:12:54.720Z,53.05
2019-04-14T12:13:54.717Z,53.24
2019-04-14T12:14:54.716Z,53.05
2019-04-14T12:15:54.711Z,53.05
2019-04-14T12:16:54.714Z,53.45
2019-04-14T12:17:54.705Z,52.15
2019-04-14T12:18:54.704Z,50.26
2019-04-14T12:19:54.701Z,49.59
2019-04-14T12:20:54.697Z,48.85
2019-04-14T12:22:07.407Z,49.33
2019-04-14T12:22:54.751Z,48.78
2019-04-14T12:23:54.692Z,47.34
2019-04-14T12:24:54.691Z,46.15
2019-04-14T12:26:04.710Z,46.48
2019-04-14T12:26:54.687Z,48.49
2019-04-14T12:27:55.735Z,49.42
2019-04-14T12:28:55.806Z,51.23
2019-04-14T12:29:54.677Z,49.62
2019-04-14T12:30:55.467Z,51.43
2019-04-14T12:31:55.258Z,50.71
2019-04-14T12:32:54.668Z,51.79
2019-04-14T12:33:54.663Z,50.60
2019-04-14T12:34:54.660Z,47.66
2019-04-14T12:35:54.658Z,45.26
2019-04-14T12:36:54.657Z,44.50
2019-04-14T12:37:54.654Z,45.24
2019-04-14T12:38:54.652Z,45.60
2019-04-14T12:39:54.654Z,46.34
2019-04-14T12:40:56.327Z,47.49
2019-04-14T12:41:54.644Z,48.90
2019-04-14T12:42:54.642Z,49.85
2019-04-14T12:43:54.639Z,50.62
2019-04-14T12:44:54.635Z,49.66
2019-04-14T12:45:54.634Z,48.78
2019-04-14T12:46:54.629Z,49.26
2019-04-14T12:47:54.624Z,49.42
2019-04-14T12:48:54.621Z,50.35
2019-04-14T12:49:54.664Z,51.50
2019-04-14T12:50:54.611Z,51.97
2019-04-14T12:51:54.606Z,52.92
2019-04-14T12:52:54.602Z,52.36
2019-04-14T12:53:54.598Z,52.88
2019-04-14T12:54:54.591Z,50.71
2019-04-14T12:55:54.628Z,49.44
2019-04-14T12:56:54.582Z,50.12
2019-04-14T12:57:54.577Z,49.93
2019-04-14T12:58:54.571Z,50.76
2019-04-14T12:59:54.568Z,51.52
2019-04-14T13:00:54.561Z,51.83
2019-04-14T13:01:54.555Z,50.64
2019-04-14T13:02:54.550Z,48.47
2019-04-14T13:03:54.548Z,47.53
2019-04-14T13:04:55.453Z,44.79
2019-04-14T13:05:54.536Z,44.64
2019-04-14T13:06:54.533Z,42.05
2019-04-14T13:07:54.529Z,41.67